sensor_id;sensor_type;location;lat;lon;timestamp;P1;durP1;ratioP1;P2;durP2;ratioP2
1446;SDS011;717;51.522;7.266;2022-09-14T00:01:23;3.90;;;0.80;;
1446;SDS011;717;51.522;7.266;2022-09-14T00:03:53;4.78;;;1.00;;
1446;SDS011;717;51.522;7.266;2022-09-14T00:06:21;5.15;;;0.90;;
1446;SDS011;717;51.522;7.266;2022-09-14T00:08:48;3.38;;;0.73;;
1446;SDS011;717;51.522;7.266;2022-09-14T00:11:17;5.40;;;0.90;;
1446;SDS011;717;51.522;7.266;2022-09-14T00:13:44;3.72;;;1.00;;
1446;SDS011;717;51.522;7.266;2022-09-14T00:16:13;6.43;;;1.00;;
1446;SDS011;717;51.522;7.266;2022-09-14T00:18:42;7.70;;;0.77;;
1446;SDS011;717;51.522;7.266;2022-09-14T00:21:11;6.20;;;1.23;;
1446;SDS011;717;51.522;7.266;2022-09-14T00:23:39;2.72;;;0.80;;
1446;SDS011;717;51.522;7.266;2022-09-14T00:26:07;4.60;;;0.98;;
1446;SDS011;717;51.522;7.266;2022-09-14T00:28:36;4.10;;;0.70;;
1446;SDS011;717;51.522;7.266;2022-09-14T00:31:03;4.55;;;0.80;;
1446;SDS011;717;51.522;7.266;2022-09-14T00:33:31;4.80;;;1.00;;
1446;SDS011;717;51.522;7.266;2022-09-14T00:36:02;5.32;;;1.13;;
1446;SDS011;717;51.522;7.266;2022-09-14T00:38:35;4.85;;;0.80;;
1446;SDS011;717;51.522;7.266;2022-09-14T00:41:02;4.28;;;0.95;;
1446;SDS011;717;51.522;7.266;2022-09-14T00:43:30;5.13;;;0.82;;
1446;SDS011;717;51.522;7.266;2022-09-14T00:45:58;4.10;;;0.85;;
1446;SDS011;717;51.522;7.266;2022-09-14T00:48:26;4.28;;;0.80;;
1446;SDS011;717;51.522;7.266;2022-09-14T00:50:54;4.70;;;0.82;;
1446;SDS011;717;51.522;7.266;2022-09-14T00:53:21;3.60;;;0.80;;
1446;SDS011;717;51.522;7.266;2022-09-14T00:55:49;4.90;;;1.05;;
1446;SDS011;717;51.522;7.266;2022-09-14T00:58:18;2.85;;;0.70;;
1446;SDS011;717;51.522;7.266;2022-09-14T01:00:45;3.47;;;0.90;;
1446;SDS011;717;51.522;7.266;2022-09-14T01:03:12;3.45;;;0.73;;
1446;SDS011;717;51.522;7.266;2022-09-14T01:05:49;2.97;;;0.60;;
1446;SDS011;717;51.522;7.266;2022-09-14T01:08:32;3.83;;;0.80;;
1446;SDS011;717;51.522;7.266;2022-09-14T01:11:15;3.55;;;0.85;;
1446;SDS011;717;51.522;7.266;2022-09-14T01:13:54;5.75;;;0.90;;
1446;SDS011;717;51.522;7.266;2022-09-14T01:16:28;5.85;;;0.98;;
1446;SDS011;717;51.522;7.266;2022-09-14T01:18:59;5.15;;;0.93;;
1446;SDS011;717;51.522;7.266;2022-09-14T01:21:30;3.85;;;0.80;;
1446;SDS011;717;51.522;7.266;2022-09-14T01:24:00;2.92;;;0.85;;
1446;SDS011;717;51.522;7.266;2022-09-14T01:29:37;3.75;;;1.05;;
1446;SDS011;717;51.522;7.266;2022-09-14T01:32:11;5.03;;;1.05;;
1446;SDS011;717;51.522;7.266;2022-09-14T01:34:42;3.55;;;0.80;;
1446;SDS011;717;51.522;7.266;2022-09-14T01:37:15;2.55;;;0.73;;
1446;SDS011;717;51.522;7.266;2022-09-14T01:39:48;5.78;;;1.05;;
1446;SDS011;717;51.522;7.266;2022-09-14T01:42:19;4.97;;;0.95;;
1446;SDS011;717;51.522;7.266;2022-09-14T01:44:49;3.65;;;0.65;;
1446;SDS011;717;51.522;7.266;2022-09-14T01:47:21;2.20;;;0.68;;
1446;SDS011;717;51.522;7.266;2022-09-14T01:49:52;5.75;;;1.10;;
1446;SDS011;717;51.522;7.266;2022-09-14T01:52:26;6.95;;;1.10;;
1446;SDS011;717;51.522;7.266;2022-09-14T01:55:00;2.85;;;0.63;;
1446;SDS011;717;51.522;7.266;2022-09-14T01:57:31;4.78;;;0.93;;
1446;SDS011;717;51.522;7.266;2022-09-14T02:00:05;3.90;;;0.77;;
1446;SDS011;717;51.522;7.266;2022-09-14T02:02:36;3.65;;;0.95;;
1446;SDS011;717;51.522;7.266;2022-09-14T02:05:08;2.35;;;0.70;;
1446;SDS011;717;51.522;7.266;2022-09-14T02:07:38;4.80;;;0.80;;
1446;SDS011;717;51.522;7.266;2022-09-14T02:10:06;1.98;;;0.68;;
1446;SDS011;717;51.522;7.266;2022-09-14T02:12:35;1.85;;;0.80;;
1446;SDS011;717;51.522;7.266;2022-09-14T02:15:06;2.85;;;0.80;;
1446;SDS011;717;51.522;7.266;2022-09-14T02:17:34;5.20;;;0.85;;
1446;SDS011;717;51.522;7.266;2022-09-14T02:20:03;3.20;;;0.70;;
1446;SDS011;717;51.522;7.266;2022-09-14T02:22:31;5.07;;;1.10;;
1446;SDS011;717;51.522;7.266;2022-09-14T02:24:58;4.75;;;1.13;;
1446;SDS011;717;51.522;7.266;2022-09-14T02:27:26;6.75;;;1.45;;
1446;SDS011;717;51.522;7.266;2022-09-14T02:29:52;3.05;;;0.85;;
1446;SDS011;717;51.522;7.266;2022-09-14T02:32:22;4.45;;;0.90;;
1446;SDS011;717;51.522;7.266;2022-09-14T02:34:56;6.47;;;0.85;;
1446;SDS011;717;51.522;7.266;2022-09-14T02:37:35;5.28;;;0.75;;
1446;SDS011;717;51.522;7.266;2022-09-14T02:40:12;3.65;;;0.90;;
1446;SDS011;717;51.522;7.266;2022-09-14T02:42:48;4.40;;;1.13;;
1446;SDS011;717;51.522;7.266;2022-09-14T02:45:24;4.25;;;0.80;;
1446;SDS011;717;51.522;7.266;2022-09-14T02:47:55;3.15;;;1.13;;
1446;SDS011;717;51.522;7.266;2022-09-14T02:50:32;2.75;;;0.68;;
1446;SDS011;717;51.522;7.266;2022-09-14T02:53:04;6.90;;;1.00;;
1446;SDS011;717;51.522;7.266;2022-09-14T02:55:36;2.95;;;0.82;;
1446;SDS011;717;51.522;7.266;2022-09-14T02:58:07;3.58;;;0.95;;
1446;SDS011;717;51.522;7.266;2022-09-14T03:00:36;3.63;;;0.80;;
1446;SDS011;717;51.522;7.266;2022-09-14T03:03:06;3.58;;;1.00;;
1446;SDS011;717;51.522;7.266;2022-09-14T03:05:35;6.30;;;1.10;;
1446;SDS011;717;51.522;7.266;2022-09-14T03:08:02;3.35;;;0.65;;
1446;SDS011;717;51.522;7.266;2022-09-14T03:10:30;3.53;;;0.73;;
1446;SDS011;717;51.522;7.266;2022-09-14T03:12:58;2.85;;;0.80;;
1446;SDS011;717;51.522;7.266;2022-09-14T03:15:25;4.32;;;1.08;;
1446;SDS011;717;51.522;7.266;2022-09-14T03:17:52;3.78;;;0.70;;
1446;SDS011;717;51.522;7.266;2022-09-14T03:20:21;4.45;;;0.95;;
1446;SDS011;717;51.522;7.266;2022-09-14T03:22:50;6.05;;;1.20;;
1446;SDS011;717;51.522;7.266;2022-09-14T03:25:17;8.15;;;1.15;;
1446;SDS011;717;51.522;7.266;2022-09-14T03:27:46;3.53;;;0.93;;
1446;SDS011;717;51.522;7.266;2022-09-14T03:30:14;3.40;;;1.27;;
1446;SDS011;717;51.522;7.266;2022-09-14T03:32:41;10.35;;;0.90;;
1446;SDS011;717;51.522;7.266;2022-09-14T03:35:08;3.83;;;1.10;;
1446;SDS011;717;51.522;7.266;2022-09-14T03:37:37;4.53;;;1.25;;
1446;SDS011;717;51.522;7.266;2022-09-14T03:40:05;3.50;;;1.00;;
1446;SDS011;717;51.522;7.266;2022-09-14T03:42:33;6.82;;;0.90;;
1446;SDS011;717;51.522;7.266;2022-09-14T03:45:01;4.93;;;1.10;;
1446;SDS011;717;51.522;7.266;2022-09-14T03:47:28;3.03;;;0.85;;
1446;SDS011;717;51.522;7.266;2022-09-14T03:49:55;3.97;;;0.95;;
1446;SDS011;717;51.522;7.266;2022-09-14T03:52:22;6.45;;;1.40;;
1446;SDS011;717;51.522;7.266;2022-09-14T03:54:50;5.50;;;1.30;;
1446;SDS011;717;51.522;7.266;2022-09-14T03:57:17;1.77;;;0.90;;
1446;SDS011;717;51.522;7.266;2022-09-14T03:59:44;5.82;;;1.00;;
1446;SDS011;717;51.522;7.266;2022-09-14T04:02:10;3.63;;;1.30;;
1446;SDS011;717;51.522;7.266;2022-09-14T04:04:37;4.22;;;1.27;;
1446;SDS011;717;51.522;7.266;2022-09-14T04:07:04;4.32;;;1.10;;
1446;SDS011;717;51.522;7.266;2022-09-14T04:09:31;4.32;;;1.10;;
1446;SDS011;717;51.522;7.266;2022-09-14T04:12:00;5.43;;;1.10;;
1446;SDS011;717;51.522;7.266;2022-09-14T04:14:27;3.95;;;1.13;;
1446;SDS011;717;51.522;7.266;2022-09-14T04:16:54;4.65;;;1.05;;
1446;SDS011;717;51.522;7.266;2022-09-14T04:19:20;4.07;;;0.95;;
1446;SDS011;717;51.522;7.266;2022-09-14T04:21:47;5.65;;;1.08;;
1446;SDS011;717;51.522;7.266;2022-09-14T04:24:14;4.18;;;0.80;;
1446;SDS011;717;51.522;7.266;2022-09-14T04:26:41;4.43;;;1.20;;
1446;SDS011;717;51.522;7.266;2022-09-14T04:29:10;2.08;;;0.80;;
1446;SDS011;717;51.522;7.266;2022-09-14T04:31:38;4.00;;;1.17;;
1446;SDS011;717;51.522;7.266;2022-09-14T04:34:05;5.30;;;1.30;;
1446;SDS011;717;51.522;7.266;2022-09-14T04:36:32;4.78;;;1.15;;
1446;SDS011;717;51.522;7.266;2022-09-14T04:39:00;5.70;;;1.30;;
1446;SDS011;717;51.522;7.266;2022-09-14T04:41:28;4.68;;;1.23;;
1446;SDS011;717;51.522;7.266;2022-09-14T04:43:56;2.33;;;1.02;;
1446;SDS011;717;51.522;7.266;2022-09-14T04:46:26;4.38;;;1.00;;
1446;SDS011;717;51.522;7.266;2022-09-14T04:48:55;4.65;;;1.48;;
1446;SDS011;717;51.522;7.266;2022-09-14T04:51:22;5.97;;;1.38;;
1446;SDS011;717;51.522;7.266;2022-09-14T04:53:51;4.88;;;1.40;;
1446;SDS011;717;51.522;7.266;2022-09-14T04:56:20;6.82;;;1.33;;
1446;SDS011;717;51.522;7.266;2022-09-14T04:58:49;2.92;;;1.20;;
1446;SDS011;717;51.522;7.266;2022-09-14T05:01:19;4.18;;;1.35;;
1446;SDS011;717;51.522;7.266;2022-09-14T05:03:49;3.30;;;1.25;;
1446;SDS011;717;51.522;7.266;2022-09-14T05:06:18;6.25;;;1.67;;
1446;SDS011;717;51.522;7.266;2022-09-14T05:08:46;6.25;;;1.50;;
1446;SDS011;717;51.522;7.266;2022-09-14T05:11:14;5.45;;;1.42;;
1446;SDS011;717;51.522;7.266;2022-09-14T05:13:43;7.22;;;1.20;;
1446;SDS011;717;51.522;7.266;2022-09-14T05:16:12;4.38;;;1.30;;
1446;SDS011;717;51.522;7.266;2022-09-14T05:18:41;6.00;;;1.80;;
1446;SDS011;717;51.522;7.266;2022-09-14T05:21:13;5.82;;;1.30;;
1446;SDS011;717;51.522;7.266;2022-09-14T05:23:41;5.07;;;1.33;;
1446;SDS011;717;51.522;7.266;2022-09-14T05:26:08;4.75;;;1.50;;
1446;SDS011;717;51.522;7.266;2022-09-14T05:28:35;5.80;;;1.80;;
1446;SDS011;717;51.522;7.266;2022-09-14T05:31:02;3.38;;;1.70;;
1446;SDS011;717;51.522;7.266;2022-09-14T05:33:30;3.90;;;1.40;;
1446;SDS011;717;51.522;7.266;2022-09-14T05:35:58;4.80;;;1.40;;
1446;SDS011;717;51.522;7.266;2022-09-14T05:38:27;4.82;;;1.30;;
1446;SDS011;717;51.522;7.266;2022-09-14T05:40:54;4.45;;;1.20;;
1446;SDS011;717;51.522;7.266;2022-09-14T05:43:21;3.55;;;1.05;;
1446;SDS011;717;51.522;7.266;2022-09-14T05:45:49;4.15;;;1.08;;
1446;SDS011;717;51.522;7.266;2022-09-14T05:48:16;3.83;;;1.25;;
1446;SDS011;717;51.522;7.266;2022-09-14T05:50:45;7.00;;;1.70;;
1446;SDS011;717;51.522;7.266;2022-09-14T05:53:11;3.60;;;1.58;;
1446;SDS011;717;51.522;7.266;2022-09-14T05:55:40;4.22;;;1.52;;
1446;SDS011;717;51.522;7.266;2022-09-14T05:58:06;4.20;;;1.52;;
1446;SDS011;717;51.522;7.266;2022-09-14T06:00:34;3.72;;;1.38;;
1446;SDS011;717;51.522;7.266;2022-09-14T06:03:03;4.32;;;1.58;;
1446;SDS011;717;51.522;7.266;2022-09-14T06:05:31;4.45;;;1.48;;
1446;SDS011;717;51.522;7.266;2022-09-14T06:07:59;2.88;;;1.33;;
1446;SDS011;717;51.522;7.266;2022-09-14T06:10:26;4.55;;;1.35;;
1446;SDS011;717;51.522;7.266;2022-09-14T06:12:54;6.20;;;1.25;;
1446;SDS011;717;51.522;7.266;2022-09-14T06:15:21;4.60;;;1.63;;
1446;SDS011;717;51.522;7.266;2022-09-14T06:17:49;4.45;;;1.60;;
1446;SDS011;717;51.522;7.266;2022-09-14T06:20:16;4.38;;;1.40;;
1446;SDS011;717;51.522;7.266;2022-09-14T06:22:42;4.07;;;1.55;;
1446;SDS011;717;51.522;7.266;2022-09-14T06:25:09;5.88;;;1.40;;
1446;SDS011;717;51.522;7.266;2022-09-14T06:27:36;3.53;;;1.83;;
1446;SDS011;717;51.522;7.266;2022-09-14T06:30:05;4.00;;;1.30;;
1446;SDS011;717;51.522;7.266;2022-09-14T06:32:33;5.35;;;1.45;;
1446;SDS011;717;51.522;7.266;2022-09-14T06:35:00;4.80;;;1.40;;
1446;SDS011;717;51.522;7.266;2022-09-14T06:37:28;3.25;;;1.13;;
1446;SDS011;717;51.522;7.266;2022-09-14T06:39:54;5.45;;;1.50;;
1446;SDS011;717;51.522;7.266;2022-09-14T06:42:21;2.78;;;1.40;;
1446;SDS011;717;51.522;7.266;2022-09-14T06:44:48;3.10;;;1.20;;
1446;SDS011;717;51.522;7.266;2022-09-14T06:47:17;4.85;;;1.80;;
1446;SDS011;717;51.522;7.266;2022-09-14T06:49:43;3.65;;;1.42;;
1446;SDS011;717;51.522;7.266;2022-09-14T06:52:10;4.20;;;1.20;;
1446;SDS011;717;51.522;7.266;2022-09-14T06:54:37;5.47;;;1.55;;
1446;SDS011;717;51.522;7.266;2022-09-14T06:57:04;4.55;;;1.38;;
1446;SDS011;717;51.522;7.266;2022-09-14T06:59:31;2.90;;;1.25;;
1446;SDS011;717;51.522;7.266;2022-09-14T07:01:58;3.50;;;1.38;;
1446;SDS011;717;51.522;7.266;2022-09-14T07:04:26;3.83;;;1.38;;
1446;SDS011;717;51.522;7.266;2022-09-14T07:06:54;3.35;;;1.05;;
1446;SDS011;717;51.522;7.266;2022-09-14T07:09:20;4.47;;;1.33;;
1446;SDS011;717;51.522;7.266;2022-09-14T07:11:47;7.45;;;1.40;;
1446;SDS011;717;51.522;7.266;2022-09-14T07:14:14;5.32;;;1.58;;
1446;SDS011;717;51.522;7.266;2022-09-14T07:16:41;3.92;;;1.25;;
1446;SDS011;717;51.522;7.266;2022-09-14T07:19:09;4.47;;;1.20;;
1446;SDS011;717;51.522;7.266;2022-09-14T07:21:38;5.20;;;1.20;;
1446;SDS011;717;51.522;7.266;2022-09-14T07:24:05;4.18;;;1.50;;
1446;SDS011;717;51.522;7.266;2022-09-14T07:26:33;4.65;;;1.13;;
1446;SDS011;717;51.522;7.266;2022-09-14T07:29:04;2.72;;;1.17;;
1446;SDS011;717;51.522;7.266;2022-09-14T07:31:33;5.53;;;1.52;;
1446;SDS011;717;51.522;7.266;2022-09-14T07:34:02;2.33;;;1.52;;
1446;SDS011;717;51.522;7.266;2022-09-14T07:36:30;2.08;;;1.40;;
1446;SDS011;717;51.522;7.266;2022-09-14T07:39:00;1.88;;;1.00;;
1446;SDS011;717;51.522;7.266;2022-09-14T07:41:29;5.45;;;1.70;;
1446;SDS011;717;51.522;7.266;2022-09-14T07:43:58;5.63;;;1.50;;
1446;SDS011;717;51.522;7.266;2022-09-14T07:46:26;4.63;;;1.52;;
1446;SDS011;717;51.522;7.266;2022-09-14T07:48:54;4.47;;;1.42;;
1446;SDS011;717;51.522;7.266;2022-09-14T07:51:23;2.25;;;1.20;;
1446;SDS011;717;51.522;7.266;2022-09-14T07:53:51;3.45;;;1.65;;
1446;SDS011;717;51.522;7.266;2022-09-14T07:56:19;3.42;;;1.58;;
1446;SDS011;717;51.522;7.266;2022-09-14T07:58:46;4.20;;;1.60;;
1446;SDS011;717;51.522;7.266;2022-09-14T08:01:14;4.18;;;1.80;;
1446;SDS011;717;51.522;7.266;2022-09-14T08:03:43;3.80;;;1.67;;
1446;SDS011;717;51.522;7.266;2022-09-14T08:06:11;6.30;;;1.95;;
1446;SDS011;717;51.522;7.266;2022-09-14T08:08:41;3.13;;;1.75;;
1446;SDS011;717;51.522;7.266;2022-09-14T08:11:10;4.15;;;1.92;;
1446;SDS011;717;51.522;7.266;2022-09-14T08:13:40;4.70;;;1.92;;
1446;SDS011;717;51.522;7.266;2022-09-14T08:16:08;5.22;;;1.95;;
1446;SDS011;717;51.522;7.266;2022-09-14T08:18:35;4.13;;;1.80;;
1446;SDS011;717;51.522;7.266;2022-09-14T08:21:03;3.28;;;1.80;;
1446;SDS011;717;51.522;7.266;2022-09-14T08:23:31;3.75;;;2.00;;
1446;SDS011;717;51.522;7.266;2022-09-14T08:26:02;5.95;;;2.15;;
1446;SDS011;717;51.522;7.266;2022-09-14T08:28:29;6.03;;;2.33;;
1446;SDS011;717;51.522;7.266;2022-09-14T08:31:02;4.82;;;2.08;;
1446;SDS011;717;51.522;7.266;2022-09-14T08:33:30;4.55;;;2.13;;
1446;SDS011;717;51.522;7.266;2022-09-14T08:35:57;6.20;;;2.38;;
1446;SDS011;717;51.522;7.266;2022-09-14T08:38:24;3.42;;;2.03;;
1446;SDS011;717;51.522;7.266;2022-09-14T08:40:52;7.22;;;2.55;;
1446;SDS011;717;51.522;7.266;2022-09-14T08:43:19;6.05;;;2.40;;
1446;SDS011;717;51.522;7.266;2022-09-14T08:45:48;4.00;;;2.80;;
1446;SDS011;717;51.522;7.266;2022-09-14T08:48:22;6.38;;;4.05;;
1446;SDS011;717;51.522;7.266;2022-09-14T08:50:52;6.35;;;5.00;;
1446;SDS011;717;51.522;7.266;2022-09-14T08:53:19;5.53;;;4.68;;
1446;SDS011;717;51.522;7.266;2022-09-14T08:55:47;5.38;;;4.88;;
1446;SDS011;717;51.522;7.266;2022-09-14T08:58:20;6.75;;;4.90;;
1446;SDS011;717;51.522;7.266;2022-09-14T09:00:57;5.55;;;4.32;;
1446;SDS011;717;51.522;7.266;2022-09-14T09:03:38;5.05;;;3.90;;
1446;SDS011;717;51.522;7.266;2022-09-14T09:06:17;5.32;;;3.05;;
1446;SDS011;717;51.522;7.266;2022-09-14T09:08:50;6.90;;;3.17;;
1446;SDS011;717;51.522;7.266;2022-09-14T09:11:25;4.43;;;3.00;;
1446;SDS011;717;51.522;7.266;2022-09-14T09:13:59;3.42;;;2.28;;
1446;SDS011;717;51.522;7.266;2022-09-14T09:16:31;3.55;;;2.53;;
1446;SDS011;717;51.522;7.266;2022-09-14T09:19:00;2.78;;;2.00;;
1446;SDS011;717;51.522;7.266;2022-09-14T09:21:33;3.47;;;2.15;;
1446;SDS011;717;51.522;7.266;2022-09-14T09:24:10;3.92;;;2.83;;
1446;SDS011;717;51.522;7.266;2022-09-14T09:26:47;4.60;;;2.90;;
1446;SDS011;717;51.522;7.266;2022-09-14T09:29:14;3.95;;;2.97;;
1446;SDS011;717;51.522;7.266;2022-09-14T09:31:42;3.70;;;2.83;;
1446;SDS011;717;51.522;7.266;2022-09-14T09:34:13;3.30;;;2.92;;
1446;SDS011;717;51.522;7.266;2022-09-14T09:36:42;4.63;;;3.00;;
1446;SDS011;717;51.522;7.266;2022-09-14T09:39:13;3.75;;;3.08;;
1446;SDS011;717;51.522;7.266;2022-09-14T09:41:43;4.00;;;3.10;;
1446;SDS011;717;51.522;7.266;2022-09-14T09:44:12;3.72;;;2.72;;
1446;SDS011;717;51.522;7.266;2022-09-14T09:46:43;5.00;;;3.25;;
1446;SDS011;717;51.522;7.266;2022-09-14T09:49:18;4.93;;;3.05;;
1446;SDS011;717;51.522;7.266;2022-09-14T09:51:46;3.80;;;3.50;;
1446;SDS011;717;51.522;7.266;2022-09-14T09:54:22;6.18;;;3.50;;
1446;SDS011;717;51.522;7.266;2022-09-14T09:56:52;3.40;;;2.60;;
1446;SDS011;717;51.522;7.266;2022-09-14T09:59:26;3.50;;;2.20;;
1446;SDS011;717;51.522;7.266;2022-09-14T10:01:55;3.25;;;1.90;;
1446;SDS011;717;51.522;7.266;2022-09-14T10:04:44;3.03;;;1.55;;
1446;SDS011;717;51.522;7.266;2022-09-14T10:07:21;2.60;;;1.33;;
1446;SDS011;717;51.522;7.266;2022-09-14T10:09:55;2.47;;;1.20;;
1446;SDS011;717;51.522;7.266;2022-09-14T10:12:23;1.50;;;1.00;;
1446;SDS011;717;51.522;7.266;2022-09-14T10:14:59;3.40;;;1.10;;
1446;SDS011;717;51.522;7.266;2022-09-14T10:17:54;2.65;;;1.00;;
1446;SDS011;717;51.522;7.266;2022-09-14T10:20:31;3.42;;;1.58;;
1446;SDS011;717;51.522;7.266;2022-09-14T10:23:08;3.25;;;1.10;;
1446;SDS011;717;51.522;7.266;2022-09-14T10:25:44;2.58;;;1.30;;
1446;SDS011;717;51.522;7.266;2022-09-14T10:28:17;2.72;;;1.10;;
1446;SDS011;717;51.522;7.266;2022-09-14T10:30:48;2.55;;;1.02;;
1446;SDS011;717;51.522;7.266;2022-09-14T10:33:17;1.42;;;0.77;;
1446;SDS011;717;51.522;7.266;2022-09-14T10:35:46;2.70;;;0.77;;
1446;SDS011;717;51.522;7.266;2022-09-14T10:38:23;1.70;;;0.75;;
1446;SDS011;717;51.522;7.266;2022-09-14T10:40:58;2.78;;;0.82;;
1446;SDS011;717;51.522;7.266;2022-09-14T10:43:36;2.70;;;0.77;;
1446;SDS011;717;51.522;7.266;2022-09-14T10:46:10;1.85;;;0.90;;
1446;SDS011;717;51.522;7.266;2022-09-14T10:48:44;1.83;;;0.90;;
1446;SDS011;717;51.522;7.266;2022-09-14T10:51:32;2.90;;;0.80;;
1446;SDS011;717;51.522;7.266;2022-09-14T10:54:07;1.05;;;0.57;;
1446;SDS011;717;51.522;7.266;2022-09-14T10:56:51;2.45;;;0.68;;
1446;SDS011;717;51.522;7.266;2022-09-14T10:59:30;1.83;;;0.90;;
1446;SDS011;717;51.522;7.266;2022-09-14T11:02:12;1.88;;;0.70;;
1446;SDS011;717;51.522;7.266;2022-09-14T11:04:58;1.70;;;0.90;;
1446;SDS011;717;51.522;7.266;2022-09-14T11:07:37;1.38;;;0.60;;
1446;SDS011;717;51.522;7.266;2022-09-14T11:10:16;2.85;;;0.70;;
1446;SDS011;717;51.522;7.266;2022-09-14T11:12:50;1.38;;;0.50;;
1446;SDS011;717;51.522;7.266;2022-09-14T11:15:39;2.40;;;0.70;;
1446;SDS011;717;51.522;7.266;2022-09-14T11:18:17;1.60;;;0.80;;
1446;SDS011;717;51.522;7.266;2022-09-14T11:20:58;1.50;;;0.47;;
1446;SDS011;717;51.522;7.266;2022-09-14T11:23:35;1.02;;;0.68;;
1446;SDS011;717;51.522;7.266;2022-09-14T11:26:09;1.10;;;0.80;;
1446;SDS011;717;51.522;7.266;2022-09-14T11:28:40;2.42;;;1.02;;
1446;SDS011;717;51.522;7.266;2022-09-14T11:31:11;1.70;;;0.70;;
1446;SDS011;717;51.522;7.266;2022-09-14T11:33:43;2.75;;;0.90;;
1446;SDS011;717;51.522;7.266;2022-09-14T11:36:15;1.65;;;0.80;;
1446;SDS011;717;51.522;7.266;2022-09-14T11:38:50;1.73;;;0.85;;
1446;SDS011;717;51.522;7.266;2022-09-14T11:41:21;1.17;;;0.70;;
1446;SDS011;717;51.522;7.266;2022-09-14T11:43:52;1.65;;;0.65;;
1446;SDS011;717;51.522;7.266;2022-09-14T11:46:24;1.33;;;0.90;;
1446;SDS011;717;51.522;7.266;2022-09-14T11:48:58;3.13;;;0.80;;
1446;SDS011;717;51.522;7.266;2022-09-14T11:51:35;2.97;;;0.80;;
1446;SDS011;717;51.522;7.266;2022-09-14T11:54:10;3.22;;;1.00;;
1446;SDS011;717;51.522;7.266;2022-09-14T11:56:40;1.98;;;0.80;;
1446;SDS011;717;51.522;7.266;2022-09-14T11:59:11;1.50;;;1.00;;
1446;SDS011;717;51.522;7.266;2022-09-14T12:05:23;3.03;;;0.90;;
1446;SDS011;717;51.522;7.266;2022-09-14T12:07:59;1.98;;;0.82;;
1446;SDS011;717;51.522;7.266;2022-09-14T12:10:29;1.08;;;0.88;;
1446;SDS011;717;51.522;7.266;2022-09-14T12:12:56;0.93;;;0.70;;
1446;SDS011;717;51.522;7.266;2022-09-14T12:15:42;1.40;;;0.85;;
1446;SDS011;717;51.522;7.266;2022-09-14T12:18:14;1.63;;;0.85;;
1446;SDS011;717;51.522;7.266;2022-09-14T12:20:47;2.42;;;1.10;;
1446;SDS011;717;51.522;7.266;2022-09-14T12:23:26;1.27;;;0.65;;
1446;SDS011;717;51.522;7.266;2022-09-14T12:26:03;2.38;;;1.00;;
1446;SDS011;717;51.522;7.266;2022-09-14T12:28:39;2.17;;;1.10;;
1446;SDS011;717;51.522;7.266;2022-09-14T12:31:28;2.05;;;0.70;;
1446;SDS011;717;51.522;7.266;2022-09-14T12:34:16;1.98;;;1.00;;
1446;SDS011;717;51.522;7.266;2022-09-14T12:36:57;1.88;;;0.82;;
1446;SDS011;717;51.522;7.266;2022-09-14T12:39:30;2.35;;;1.00;;
1446;SDS011;717;51.522;7.266;2022-09-14T12:42:03;2.92;;;0.80;;
1446;SDS011;717;51.522;7.266;2022-09-14T12:44:45;1.67;;;0.80;;
1446;SDS011;717;51.522;7.266;2022-09-14T12:50:21;1.10;;;0.75;;
1446;SDS011;717;51.522;7.266;2022-09-14T12:52:55;1.58;;;1.00;;
1446;SDS011;717;51.522;7.266;2022-09-14T12:55:46;1.52;;;1.17;;
1446;SDS011;717;51.522;7.266;2022-09-14T12:58:28;2.00;;;1.30;;
1446;SDS011;717;51.522;7.266;2022-09-14T13:01:13;1.80;;;1.08;;
1446;SDS011;717;51.522;7.266;2022-09-14T13:03:47;2.38;;;1.42;;
1446;SDS011;717;51.522;7.266;2022-09-14T13:06:16;1.83;;;1.30;;
1446;SDS011;717;51.522;7.266;2022-09-14T13:08:44;1.67;;;1.20;;
1446;SDS011;717;51.522;7.266;2022-09-14T13:11:19;1.55;;;1.30;;
1446;SDS011;717;51.522;7.266;2022-09-14T13:13:49;3.45;;;1.20;;
1446;SDS011;717;51.522;7.266;2022-09-14T13:16:26;2.80;;;1.10;;
1446;SDS011;717;51.522;7.266;2022-09-14T13:19:00;1.75;;;0.70;;
1446;SDS011;717;51.522;7.266;2022-09-14T13:21:30;1.83;;;0.90;;
1446;SDS011;717;51.522;7.266;2022-09-14T13:23:57;2.05;;;0.80;;
1446;SDS011;717;51.522;7.266;2022-09-14T13:26:24;2.60;;;0.88;;
1446;SDS011;717;51.522;7.266;2022-09-14T13:28:55;1.83;;;0.90;;
1446;SDS011;717;51.522;7.266;2022-09-14T13:31:26;1.20;;;0.80;;
1446;SDS011;717;51.522;7.266;2022-09-14T13:33:55;2.92;;;1.05;;
1446;SDS011;717;51.522;7.266;2022-09-14T13:36:23;1.45;;;0.82;;
1446;SDS011;717;51.522;7.266;2022-09-14T13:38:51;1.58;;;1.00;;
1446;SDS011;717;51.522;7.266;2022-09-14T13:41:19;1.55;;;1.10;;
1446;SDS011;717;51.522;7.266;2022-09-14T13:43:48;2.30;;;0.90;;
1446;SDS011;717;51.522;7.266;2022-09-14T13:46:19;2.10;;;1.20;;
1446;SDS011;717;51.522;7.266;2022-09-14T13:48:47;1.38;;;0.85;;
1446;SDS011;717;51.522;7.266;2022-09-14T13:51:16;1.33;;;1.20;;
1446;SDS011;717;51.522;7.266;2022-09-14T13:53:48;2.72;;;1.40;;
1446;SDS011;717;51.522;7.266;2022-09-14T13:56:18;1.75;;;0.90;;
1446;SDS011;717;51.522;7.266;2022-09-14T13:59:12;1.67;;;1.15;;
1446;SDS011;717;51.522;7.266;2022-09-14T14:01:48;1.52;;;1.20;;
1446;SDS011;717;51.522;7.266;2022-09-14T14:04:22;3.10;;;1.50;;
1446;SDS011;717;51.522;7.266;2022-09-14T14:06:58;2.85;;;1.67;;
1446;SDS011;717;51.522;7.266;2022-09-14T14:09:36;2.20;;;1.55;;
1446;SDS011;717;51.522;7.266;2022-09-14T14:12:08;2.55;;;1.50;;
1446;SDS011;717;51.522;7.266;2022-09-14T14:14:37;3.70;;;1.50;;
1446;SDS011;717;51.522;7.266;2022-09-14T14:17:21;3.08;;;1.52;;
1446;SDS011;717;51.522;7.266;2022-09-14T14:19:51;2.75;;;1.25;;
1446;SDS011;717;51.522;7.266;2022-09-14T14:22:19;2.83;;;1.20;;
1446;SDS011;717;51.522;7.266;2022-09-14T14:24:49;3.08;;;1.00;;
1446;SDS011;717;51.522;7.266;2022-09-14T14:27:24;1.80;;;1.00;;
1446;SDS011;717;51.522;7.266;2022-09-14T14:29:55;2.85;;;0.98;;
1446;SDS011;717;51.522;7.266;2022-09-14T14:32:23;1.65;;;0.90;;
1446;SDS011;717;51.522;7.266;2022-09-14T14:34:51;2.65;;;1.10;;
1446;SDS011;717;51.522;7.266;2022-09-14T14:37:18;4.50;;;1.20;;
1446;SDS011;717;51.522;7.266;2022-09-14T14:39:45;3.03;;;1.00;;
1446;SDS011;717;51.522;7.266;2022-09-14T14:42:12;3.47;;;1.20;;
1446;SDS011;717;51.522;7.266;2022-09-14T14:44:40;2.47;;;1.08;;
1446;SDS011;717;51.522;7.266;2022-09-14T14:47:09;1.98;;;1.20;;
1446;SDS011;717;51.522;7.266;2022-09-14T14:49:38;1.70;;;1.23;;
1446;SDS011;717;51.522;7.266;2022-09-14T14:52:05;4.30;;;1.75;;
1446;SDS011;717;51.522;7.266;2022-09-14T14:54:32;2.40;;;1.48;;
1446;SDS011;717;51.522;7.266;2022-09-14T14:56:59;3.15;;;1.80;;
1446;SDS011;717;51.522;7.266;2022-09-14T14:59:27;2.45;;;1.70;;
1446;SDS011;717;51.522;7.266;2022-09-14T15:01:55;4.47;;;2.38;;
1446;SDS011;717;51.522;7.266;2022-09-14T15:04:23;3.58;;;2.13;;
1446;SDS011;717;51.522;7.266;2022-09-14T15:06:51;3.53;;;2.40;;
1446;SDS011;717;51.522;7.266;2022-09-14T15:09:19;3.85;;;2.47;;
1446;SDS011;717;51.522;7.266;2022-09-14T15:11:47;3.65;;;3.10;;
1446;SDS011;717;51.522;7.266;2022-09-14T15:14:15;4.45;;;3.55;;
1446;SDS011;717;51.522;7.266;2022-09-14T15:16:43;5.38;;;4.18;;
1446;SDS011;717;51.522;7.266;2022-09-14T15:19:11;5.18;;;4.15;;
1446;SDS011;717;51.522;7.266;2022-09-14T15:21:38;4.93;;;4.40;;
1446;SDS011;717;51.522;7.266;2022-09-14T15:24:07;5.97;;;4.80;;
1446;SDS011;717;51.522;7.266;2022-09-14T15:26:35;5.32;;;4.15;;
1446;SDS011;717;51.522;7.266;2022-09-14T15:29:02;4.82;;;4.43;;
1446;SDS011;717;51.522;7.266;2022-09-14T15:31:30;6.28;;;4.65;;
1446;SDS011;717;51.522;7.266;2022-09-14T15:33:57;4.35;;;3.85;;
1446;SDS011;717;51.522;7.266;2022-09-14T15:36:34;5.70;;;4.53;;
1446;SDS011;717;51.522;7.266;2022-09-14T15:39:03;4.80;;;4.10;;
1446;SDS011;717;51.522;7.266;2022-09-14T15:41:31;6.70;;;4.20;;
1446;SDS011;717;51.522;7.266;2022-09-14T15:43:58;5.13;;;4.32;;
1446;SDS011;717;51.522;7.266;2022-09-14T15:46:25;4.75;;;4.25;;
1446;SDS011;717;51.522;7.266;2022-09-14T15:48:52;4.20;;;3.78;;
1446;SDS011;717;51.522;7.266;2022-09-14T15:51:18;4.10;;;3.70;;
1446;SDS011;717;51.522;7.266;2022-09-14T15:53:45;4.82;;;3.90;;
1446;SDS011;717;51.522;7.266;2022-09-14T15:56:14;4.68;;;3.75;;
1446;SDS011;717;51.522;7.266;2022-09-14T15:58:42;4.13;;;3.72;;
1446;SDS011;717;51.522;7.266;2022-09-14T16:01:10;5.15;;;4.63;;